首页
METAR-TAF:

METAR-TAF

机场 :

格罗塞托, 意大利

纬度: 42-45N, 经度: 011-04E, 海拔: 5米

当前天气观测

该预报发布于21分钟前的04:55 UTC
风速4节,风向
温度 6°C
湿度 93%
气压 1016 hPa
能见度10公里或以上
多云层高于6000英尺

METAR: LIRS 010455Z 09004KT 9999 BKN060 06/05 Q1016

时间: 06:16 (05:16 UTC)

预报

该预报发布于3小时和16分钟前的02:00 UTC
预报有效从01日的 03点(UTC)到 01日的 12点(UTC)
风速4节,风向东转东北
能见度10公里或以上
散云层高于4000英尺
短暂存在
从 01日的 03点(UTC)到 01日的 06点(UTC)
多云层高于4000英尺

TAF: LIRS 010200Z 0103/0112 06004KT 9999 SCT040 TEMPO 0103/0106 BKN040

超过4000个机场的气象观测和天气预报(METAR&TAF报告)。

可查询的气象台以黄色和红色小点在地图上表示。

将鼠标移到小点上方,可查看气象台名称。

然后点击查看天气观测和预报。

如需切换地图:点击带黑十字的绿色按钮放大地图;点击带横线的绿色按钮缩小地图;或者点击绿色箭头查看邻近地区的地图。


METAR-TAF: